Time;durP1;ratioP1;P1;durP2;ratioP2;P2;SDS_P1;SDS_P2;PMS_P1;PMS_P2;Temp;Humidity;BMP_temperature;BMP_pressure;BME280_temperature;BME280_humidity;BME280_pressure;Samples;Min_cycle;Max_cycle;Signal;HPM_P1;HPM_P2
2023/09/16 00:00:33;;;;;;;14.07;12.57;;;;;;;;;;10069550;28;20124;-81
2023/09/16 00:05:25;;;;;;;;;;;;;;;;;;10065782;28;20128;-81
2023/09/16 00:10:17;;;;;;;15.40;13.70;;;;;;;;;;10076398;28;20263;-82
2023/09/16 00:15:09;;;;;;;19.20;17.45;;;;;;;;;;10114673;28;20752;-85
2023/09/16 00:20:09;;;;;;;23.20;17.48;;;;;;;;;;10059516;28;20380;-84
2023/09/16 00:25:01;;;;;;;23.58;19.33;;;;;;;;;;10034172;28;20053;-83
2023/09/16 00:29:53;;;;;;;26.00;23.35;;;;;;;;;;10065907;28;20082;-83
2023/09/16 00:34:45;;;;;;;21.42;19.08;;;;;;;;;;10073695;28;20458;-84
2023/09/16 00:39:38;;;;;;;20.45;18.23;;;;;;;;;;10105905;28;20048;-85
2023/09/16 00:44:30;;;;;;;18.70;16.05;;;;;;;;;;10075015;28;20053;-85
2023/09/16 00:49:22;;;;;;;24.52;20.38;;;;;;;;;;10064301;28;20061;-83
2023/09/16 00:54:14;;;;;;;25.60;20.30;;;;;;;;;;10066348;28;20087;-85
2023/09/16 00:59:06;;;;;;;19.70;17.50;;;;;;;;;;10033011;28;20045;-84
2023/09/16 01:03:58;;;;;;;20.15;17.67;;;;;;;;;;10076832;28;20095;-83
2023/09/16 01:08:50;;;;;;;23.63;17.50;;;;;;;;;;10085660;28;20073;-84
2023/09/16 01:13:42;;;;;;;18.88;14.85;;;;;;;;;;10066842;28;20068;-85
2023/09/16 01:18:41;;;;;;;18.52;16.40;;;;;;;;;;10046816;28;20053;-85
2023/09/16 01:23:34;;;;;;;20.65;18.10;;;;;;;;;;10063553;28;20041;-85
2023/09/16 01:28:26;;;;;;;22.40;17.38;;;;;;;;;;10046285;28;20055;-85
2023/09/16 01:33:33;;;;;;;21.70;17.23;;;;;;;;;;10064940;28;20116;-84
2023/09/16 01:38:26;;;;;;;18.75;15.00;;;;;;;;;;10045207;28;20049;-85
2023/09/16 01:43:19;;;;;;;24.45;20.70;;;;;;;;;;10028638;28;20479;-85
2023/09/16 01:48:11;;;;;;;26.30;21.83;;;;;;;;;;10044119;28;20037;-84
2023/09/16 01:53:06;;;;;;;29.17;24.80;;;;;;;;;;10062178;28;20447;-85
2023/09/16 01:57:59;;;;;;;26.27;23.45;;;;;;;;;;10045175;28;20077;-84
2023/09/16 02:02:51;;;;;;;25.50;22.70;;;;;;;;;;10078342;28;20064;-85
2023/09/16 02:07:43;;;;;;;22.33;19.23;;;;;;;;;;10073681;28;20037;-85
2023/09/16 02:12:36;;;;;;;14.57;12.98;;;;;;;;;;10044683;28;20049;-83
2023/09/16 02:17:30;;;;;;;12.70;11.50;;;;;;;;;;10044390;28;20372;-84
2023/09/16 02:22:22;;;;;;;19.05;11.95;;;;;;;;;;10043116;28;20052;-84
2023/09/16 02:27:14;;;;;;;16.48;13.35;;;;;;;;;;10027600;28;20510;-82
2023/09/16 02:32:06;;;;;;;18.83;16.20;;;;;;;;;;10061724;28;20046;-83
2023/09/16 02:36:59;;;;;;;24.42;20.83;;;;;;;;;;10063766;28;20099;-83
2023/09/16 02:41:53;;;;;;;18.25;16.02;;;;;;;;;;10053342;28;20041;-83
2023/09/16 02:46:45;;;;;;;14.55;12.77;;;;;;;;;;10060143;28;20041;-85
2023/09/16 02:51:38;;;;;;;21.00;16.58;;;;;;;;;;10088846;28;20508;-84
2023/09/16 02:56:30;;;;;;;22.38;20.00;;;;;;;;;;10092976;28;20079;-84
2023/09/16 03:01:22;;;;;;;23.02;16.52;;;;;;;;;;10081441;28;20119;-85
2023/09/16 03:06:14;;;;;;;16.35;14.65;;;;;;;;;;10057256;28;20467;-83
2023/09/16 03:11:06;;;;;;;15.20;13.55;;;;;;;;;;10050697;28;20048;-83
2023/09/16 03:16:22;;;;;;;28.15;18.50;;;;;;;;;;10048061;28;20407;-85
2023/09/16 03:21:24;;;;;;;22.83;19.55;;;;;;;;;;10051674;28;20065;-83
2023/09/16 03:26:21;;;;;;;30.42;19.95;;;;;;;;;;10053976;28;20400;-84
2023/09/16 03:31:15;;;;;;;23.90;18.63;;;;;;;;;;10061293;28;20049;-84
2023/09/16 03:36:07;;;;;;;24.27;20.38;;;;;;;;;;10067278;28;20037;-83
2023/09/16 03:41:00;;;;;;;27.20;21.10;;;;;;;;;;10067338;28;20128;-84
2023/09/16 03:45:52;;;;;;;22.70;19.30;;;;;;;;;;10049846;28;20049;-83
2023/09/16 03:50:46;;;;;;;26.10;19.27;;;;;;;;;;10073353;28;20044;-84
2023/09/16 03:55:38;;;;;;;30.65;21.63;;;;;;;;;;10064593;28;20053;-84
2023/09/16 04:00:30;;;;;;;26.55;22.73;;;;;;;;;;10034365;28;20502;-84
2023/09/16 04:05:22;;;;;;;32.25;22.85;;;;;;;;;;10067173;28;20133;-84
2023/09/16 04:10:14;;;;;;;25.25;19.85;;;;;;;;;;10065022;28;20057;-84
2023/09/16 04:15:07;;;;;;;30.88;20.75;;;;;;;;;;10064381;28;20056;-84
2023/09/16 04:19:59;;;;;;;24.42;21.27;;;;;;;;;;10046210;28;20133;-84
2023/09/16 04:24:51;;;;;;;25.10;21.90;;;;;;;;;;10048653;28;20056;-85
2023/09/16 04:29:43;;;;;;;23.20;20.73;;;;;;;;;;10097949;28;20075;-84
2023/09/16 04:34:35;;;;;;;27.40;23.90;;;;;;;;;;10082699;28;20042;-84
2023/09/16 04:39:27;;;;;;;26.05;20.27;;;;;;;;;;10048212;28;20068;-85
2023/09/16 04:44:22;;;;;;;28.73;22.65;;;;;;;;;;10046323;28;20045;-84
2023/09/16 04:49:15;;;;;;;26.02;22.25;;;;;;;;;;10044186;28;20042;-84
2023/09/16 04:54:08;;;;;;;33.45;23.02;;;;;;;;;;10047015;28;20992;-84
2023/09/16 04:59:00;;;;;;;25.85;19.40;;;;;;;;;;10045989;28;20447;-86
2023/09/16 05:03:53;;;;;;;17.65;15.75;;;;;;;;;;10049016;28;20053;-84
2023/09/16 05:08:45;;;;;;;21.17;16.63;;;;;;;;;;10047656;28;20050;-85
2023/09/16 05:13:38;;;;;;;23.42;17.02;;;;;;;;;;10044723;28;20049;-84
2023/09/16 05:18:30;;;;;;;24.33;18.60;;;;;;;;;;10044761;28;20416;-85
2023/09/16 05:23:23;;;;;;;24.65;19.63;;;;;;;;;;10045066;28;20443;-84
2023/09/16 05:28:17;;;;;;;22.20;19.50;;;;;;;;;;10044164;28;20501;-84
2023/09/16 05:33:12;;;;;;;21.38;18.27;;;;;;;;;;10061769;28;20080;-84
2023/09/16 05:38:05;;;;;;;16.70;15.00;;;;;;;;;;10063019;28;20045;-83
2023/09/16 05:42:57;;;;;;;31.90;19.10;;;;;;;;;;10044046;28;20435;-84
2023/09/16 05:47:50;;;;;;;20.75;17.27;;;;;;;;;;10045313;28;20081;-83
2023/09/16 05:52:42;;;;;;;33.08;24.10;;;;;;;;;;10046061;28;20445;-85
2023/09/16 05:57:35;;;;;;;33.30;28.48;;;;;;;;;;10045442;28;20052;-83
2023/09/16 06:02:28;;;;;;;40.60;31.33;;;;;;;;;;10045978;28;20087;-83
2023/09/16 06:07:24;;;;;;;41.15;33.67;;;;;;;;;;10062239;28;20037;-83
2023/09/16 06:12:16;;;;;;;43.42;35.67;;;;;;;;;;10063366;28;20047;-85
2023/09/16 06:17:08;;;;;;;28.30;25.30;;;;;;;;;;10072690;28;20414;-84
2023/09/16 06:22:00;;;;;;;31.83;26.90;;;;;;;;;;10057156;28;20049;-85
2023/09/16 06:26:54;;;;;;;39.40;29.20;;;;;;;;;;10058962;28;20045;-85
2023/09/16 06:31:46;;;;;;;32.33;25.77;;;;;;;;;;10057022;28;20103;-85
2023/09/16 06:36:41;;;;;;;30.83;24.80;;;;;;;;;;10092400;28;20048;-86
2023/09/16 06:41:33;;;;;;;40.88;30.38;;;;;;;;;;10060446;28;20124;-70
2023/09/16 06:46:35;;;;;;;41.75;33.38;;;;;;;;;;10071259;28;20041;-70
2023/09/16 06:51:27;;;;;;;40.45;33.55;;;;;;;;;;10080450;28;20045;-70
2023/09/16 06:56:19;;;;;;;35.58;30.27;;;;;;;;;;10092922;28;20447;-69
2023/09/16 07:01:11;;;;;;;36.53;31.13;;;;;;;;;;10073757;28;21277;-69
2023/09/16 07:06:03;;;;;;;42.25;33.20;;;;;;;;;;10110013;28;20048;-70
2023/09/16 07:10:55;;;;;;;37.85;31.20;;;;;;;;;;10094169;28;20489;-70
2023/09/16 07:15:54;;;;;;;39.67;32.72;;;;;;;;;;10075874;28;20467;-70
2023/09/16 07:20:46;;;;;;;39.42;30.85;;;;;;;;;;10072520;28;20045;-70
2023/09/16 07:25:38;;;;;;;15.18;13.43;;;;;;;;;;10103739;28;20048;-70
2023/09/16 07:30:30;;;;;;;22.98;16.77;;;;;;;;;;10079856;28;20068;-67
2023/09/16 07:35:22;;;;;;;37.25;30.23;;;;;;;;;;10092739;28;20132;-70
2023/09/16 07:40:14;;;;;;;36.60;28.35;;;;;;;;;;10097518;28;20068;-68
2023/09/16 07:45:07;;;;;;;27.83;23.77;;;;;;;;;;10101796;28;20088;-69
2023/09/16 07:49:58;;;;;;;29.88;23.40;;;;;;;;;;10106202;28;20072;-70
2023/09/16 07:54:50;;;;;;;27.15;24.60;;;;;;;;;;10130475;28;20072;-69
2023/09/16 07:59:43;;;;;;;30.10;26.27;;;;;;;;;;10113327;28;20052;-69
2023/09/16 08:04:34;;;;;;;35.28;30.05;;;;;;;;;;10082522;28;20470;-67
2023/09/16 08:09:27;;;;;;;30.85;27.20;;;;;;;;;;10124570;28;20053;-68
2023/09/16 08:14:19;;;;;;;35.88;30.05;;;;;;;;;;10068289;28;20042;-67
2023/09/16 08:19:12;;;;;;;36.67;31.70;;;;;;;;;;10095446;28;20052;-69
2023/09/16 08:24:04;;;;;;;36.70;31.50;;;;;;;;;;10099189;28;20053;-68
2023/09/16 08:28:56;;;;;;;34.88;31.20;;;;;;;;;;10101894;28;20056;-70
2023/09/16 08:33:49;;;;;;;34.67;30.92;;;;;;;;;;10103489;28;20132;-69
2023/09/16 08:38:41;;;;;;;34.90;31.30;;;;;;;;;;10106069;28;20107;-70
2023/09/16 08:43:37;;;;;;;34.75;30.50;;;;;;;;;;10064648;28;20148;-68
2023/09/16 08:48:36;;;;;;;33.50;28.88;;;;;;;;;;10084409;28;20117;-68
2023/09/16 08:53:30;;;;;;;44.03;28.83;;;;;;;;;;10063236;28;20045;-69
2023/09/16 08:58:23;;;;;;;24.42;21.80;;;;;;;;;;10121824;28;20140;-68
2023/09/16 09:03:15;;;;;;;23.65;21.20;;;;;;;;;;10056116;28;20443;-70
2023/09/16 09:08:09;;;;;;;25.13;21.70;;;;;;;;;;10062342;28;20045;-68
2023/09/16 09:13:01;;;;;;;29.35;25.92;;;;;;;;;;10074282;28;20128;-67
2023/09/16 09:17:58;;;;;;;31.70;23.90;;;;;;;;;;10082417;28;20050;-69
2023/09/16 09:22:52;;;;;;;39.40;26.47;;;;;;;;;;10087956;28;20348;-69
2023/09/16 09:27:43;;;;;;;30.00;26.25;;;;;;;;;;10094925;28;20378;-67
2023/09/16 09:32:37;;;;;;;32.20;28.38;;;;;;;;;;10113759;28;20033;-67
2023/09/16 09:37:29;;;;;;;32.70;27.92;;;;;;;;;;10111728;28;20080;-66
2023/09/16 09:42:21;;;;;;;29.00;25.75;;;;;;;;;;10067128;28;20045;-67
2023/09/16 09:47:15;;;;;;;34.10;30.42;;;;;;;;;;10102944;28;20067;-68
2023/09/16 09:52:08;;;;;;;34.35;29.60;;;;;;;;;;10085632;28;20639;-66
2023/09/16 09:57:04;;;;;;;47.85;35.55;;;;;;;;;;10059612;28;20053;-67
2023/09/16 10:01:55;;;;;;;38.83;34.75;;;;;;;;;;10087052;28;20082;-68
2023/09/16 10:06:47;;;;;;;46.28;36.45;;;;;;;;;;10068420;28;20422;-69
2023/09/16 10:11:41;;;;;;;44.03;39.38;;;;;;;;;;10074409;28;20360;-66
2023/09/16 10:16:33;;;;;;;61.28;43.05;;;;;;;;;;10087754;28;20558;-67
2023/09/16 10:21:25;;;;;;;58.83;45.55;;;;;;;;;;10040956;28;20107;-69
2023/09/16 10:26:17;;;;;;;60.45;47.83;;;;;;;;;;10041147;28;20353;-68
2023/09/16 10:31:11;;;;;;;48.22;40.20;;;;;;;;;;10080658;28;20053;-67
2023/09/16 10:36:04;;;;;;;49.55;44.15;;;;;;;;;;10079860;28;20056;-68
2023/09/16 10:40:56;;;;;;;51.42;41.05;;;;;;;;;;10088709;28;20047;-67
2023/09/16 10:45:49;;;;;;;47.15;39.13;;;;;;;;;;10091210;28;20127;-68
2023/09/16 10:50:41;;;;;;;44.22;37.58;;;;;;;;;;10069083;28;20041;-68
2023/09/16 10:55:48;;;;;;;34.90;30.85;;;;;;;;;;10102284;28;20075;-67
2023/09/16 11:00:55;;;;;;;37.38;33.45;;;;;;;;;;10116014;28;20380;-66
2023/09/16 11:05:47;;;;;;;38.50;34.33;;;;;;;;;;10123925;28;20040;-67
2023/09/16 11:10:39;;;;;;;32.42;28.42;;;;;;;;;;10128637;28;20044;-68
2023/09/16 11:15:32;;;;;;;32.80;28.40;;;;;;;;;;10089954;28;20052;-65
2023/09/16 11:20:31;;;;;;;22.77;19.55;;;;;;;;;;10100749;28;20110;-69
2023/09/16 11:25:33;;;;;;;24.92;22.30;;;;;;;;;;10082589;28;20136;-68
2023/09/16 11:30:24;;;;;;;25.65;21.98;;;;;;;;;;10101880;28;21329;-69
2023/09/16 11:35:17;;;;;;;26.02;22.02;;;;;;;;;;10085915;28;20045;-67
2023/09/16 11:40:09;;;;;;;25.10;22.58;;;;;;;;;;10116430;28;20107;-66
2023/09/16 11:45:02;;;;;;;20.38;18.40;;;;;;;;;;10100558;28;20152;-68
2023/09/16 11:49:54;;;;;;;22.48;17.25;;;;;;;;;;10087468;28;20037;-65
2023/09/16 11:54:47;;;;;;;18.27;16.35;;;;;;;;;;10073827;28;20076;-68
2023/09/16 11:59:39;;;;;;;18.60;14.05;;;;;;;;;;10059576;28;20105;-68
2023/09/16 12:04:34;;;;;;;14.73;12.90;;;;;;;;;;10058605;28;20047;-66
2023/09/16 12:09:27;;;;;;;15.68;13.00;;;;;;;;;;10108246;28;20444;-67
2023/09/16 12:14:21;;;;;;;16.33;13.88;;;;;;;;;;10109406;28;20417;-68
2023/09/16 12:19:13;;;;;;;16.95;14.88;;;;;;;;;;10112781;28;20522;-67
2023/09/16 12:24:05;;;;;;;12.02;10.93;;;;;;;;;;10096417;28;20076;-68
2023/09/16 12:28:57;;;;;;;15.93;11.80;;;;;;;;;;10106536;28;20052;-67
2023/09/16 12:33:54;;;;;;;15.30;13.75;;;;;;;;;;10073510;28;20045;-65
2023/09/16 12:38:46;;;;;;;12.15;9.95;;;;;;;;;;10065817;28;20084;-68
2023/09/16 12:43:40;;;;;;;11.88;10.20;;;;;;;;;;10060874;28;20052;-68
2023/09/16 12:48:37;;;;;;;9.85;8.88;;;;;;;;;;10067274;28;20041;-67
2023/09/16 12:53:30;;;;;;;11.15;10.07;;;;;;;;;;10080505;28;20048;-68
2023/09/16 12:58:22;;;;;;;11.25;10.07;;;;;;;;;;10080478;28;20046;-68
2023/09/16 13:03:17;;;;;;;12.43;10.43;;;;;;;;;;10084997;28;20044;-68
2023/09/16 13:08:09;;;;;;;13.13;10.48;;;;;;;;;;10106347;28;20046;-66
2023/09/16 13:13:01;;;;;;;13.98;10.10;;;;;;;;;;10073782;28;20519;-68
2023/09/16 13:17:59;;;;;;;10.45;7.80;;;;;;;;;;10093756;28;20052;-68
2023/09/16 13:22:56;;;;;;;9.88;8.77;;;;;;;;;;10082510;28;20038;-65
2023/09/16 13:27:49;;;;;;;14.73;9.77;;;;;;;;;;10085721;28;20040;-67
2023/09/16 13:32:54;;;;;;;10.60;8.65;;;;;;;;;;10080261;28;20045;-67
2023/09/16 13:37:46;;;;;;;9.65;8.63;;;;;;;;;;10081573;28;20045;-67
2023/09/16 13:42:38;;;;;;;10.82;9.02;;;;;;;;;;10114663;28;20044;-67
2023/09/16 13:47:30;;;;;;;10.75;9.82;;;;;;;;;;10093159;28;20433;-67
2023/09/16 13:52:22;;;;;;;12.90;9.52;;;;;;;;;;10061164;28;20069;-67
2023/09/16 13:57:14;;;;;;;12.18;9.35;;;;;;;;;;10066129;28;20045;-67
2023/09/16 14:02:06;;;;;;;13.15;11.85;;;;;;;;;;10089293;28;20052;-67
2023/09/16 14:06:58;;;;;;;13.57;12.15;;;;;;;;;;10105358;28;20036;-66
2023/09/16 14:11:50;;;;;;;12.35;11.27;;;;;;;;;;10102414;28;20069;-67
2023/09/16 14:16:42;;;;;;;14.27;11.98;;;;;;;;;;10099178;28;20063;-67
2023/09/16 14:21:34;;;;;;;13.90;11.48;;;;;;;;;;10084391;28;20136;-66
2023/09/16 14:26:26;;;;;;;17.02;13.40;;;;;;;;;;10084671;28;20098;-67
2023/09/16 14:31:20;;;;;;;15.90;14.32;;;;;;;;;;10100731;28;20110;-67
2023/09/16 14:36:12;;;;;;;14.18;12.77;;;;;;;;;;10089851;28;20048;-67
2023/09/16 14:41:05;;;;;;;17.77;15.95;;;;;;;;;;10110828;28;20111;-67
2023/09/16 14:45:57;;;;;;;13.70;12.25;;;;;;;;;;10095414;28;20052;-68
2023/09/16 14:50:53;;;;;;;16.88;15.27;;;;;;;;;;10103938;28;20380;-65
2023/09/16 14:55:46;;;;;;;14.32;12.70;;;;;;;;;;10102994;28;20063;-67
2023/09/16 15:00:38;;;;;;;12.68;11.38;;;;;;;;;;10088659;28;20464;-66
2023/09/16 15:05:30;;;;;;;12.48;10.90;;;;;;;;;;10111396;28;20052;-66
2023/09/16 15:10:22;;;;;;;16.50;12.02;;;;;;;;;;10115250;28;20102;-66
2023/09/16 15:15:14;;;;;;;15.77;13.80;;;;;;;;;;10113955;28;20044;-67
2023/09/16 15:20:06;;;;;;;13.70;12.30;;;;;;;;;;10117750;28;20052;-66
2023/09/16 15:24:58;;;;;;;12.35;11.05;;;;;;;;;;10120630;28;20048;-66
2023/09/16 15:29:51;;;;;;;16.13;11.95;;;;;;;;;;10111543;28;20488;-65
2023/09/16 15:34:43;;;;;;;16.35;12.30;;;;;;;;;;10106617;28;20149;-67
2023/09/16 15:39:35;;;;;;;11.88;10.77;;;;;;;;;;10112371;28;20045;-67
2023/09/16 15:44:27;;;;;;;11.32;10.13;;;;;;;;;;10107891;28;20136;-66
2023/09/16 15:49:20;;;;;;;18.40;10.45;;;;;;;;;;10097503;28;20140;-67
2023/09/16 15:54:12;;;;;;;11.75;10.70;;;;;;;;;;10098566;28;20069;-65
2023/09/16 15:59:04;;;;;;;10.27;9.32;;;;;;;;;;10109601;28;20382;-66
2023/09/16 16:03:56;;;;;;;11.15;9.82;;;;;;;;;;10110144;28;20042;-67
2023/09/16 16:08:49;;;;;;;12.40;11.10;;;;;;;;;;10071743;28;20059;-66
2023/09/16 16:13:41;;;;;;;13.80;11.48;;;;;;;;;;10073752;28;20056;-66
2023/09/16 16:18:33;;;;;;;15.27;11.93;;;;;;;;;;10081434;28;20063;-64
2023/09/16 16:23:25;;;;;;;18.05;12.55;;;;;;;;;;10077356;28;20148;-66
2023/09/16 16:28:17;;;;;;;11.85;10.57;;;;;;;;;;10079922;28;20057;-66
2023/09/16 16:33:09;;;;;;;13.20;11.75;;;;;;;;;;10104582;28;20468;-65
2023/09/16 16:38:01;;;;;;;14.23;12.73;;;;;;;;;;10089750;28;20062;-66
2023/09/16 16:42:53;;;;;;;13.70;12.30;;;;;;;;;;10074231;28;20464;-66
2023/09/16 16:47:47;;;;;;;13.80;12.43;;;;;;;;;;10078030;28;20395;-66
2023/09/16 16:52:39;;;;;;;13.75;12.00;;;;;;;;;;10067864;28;20053;-66
2023/09/16 16:57:32;;;;;;;18.85;13.63;;;;;;;;;;10066870;28;20077;-67
2023/09/16 17:02:24;;;;;;;15.68;14.15;;;;;;;;;;10066253;28;20061;-65
2023/09/16 17:07:16;;;;;;;15.00;13.40;;;;;;;;;;10066724;28;20168;-67
2023/09/16 17:12:08;;;;;;;16.98;13.48;;;;;;;;;;10066164;28;20095;-66
2023/09/16 17:17:00;;;;;;;15.43;12.60;;;;;;;;;;10071913;28;20054;-65
2023/09/16 17:21:53;;;;;;;14.93;12.95;;;;;;;;;;10081657;28;20047;-66
2023/09/16 17:26:44;;;;;;;13.88;12.68;;;;;;;;;;10070163;28;20474;-65
2023/09/16 17:31:36;;;;;;;14.98;13.50;;;;;;;;;;10087480;28;20045;-67
2023/09/16 17:36:28;;;;;;;22.05;16.60;;;;;;;;;;10095107;28;20489;-66
2023/09/16 17:41:21;;;;;;;15.00;12.75;;;;;;;;;;10089252;28;20414;-68
2023/09/16 17:46:13;;;;;;;20.52;13.30;;;;;;;;;;10093215;28;20424;-66
2023/09/16 17:51:05;;;;;;;13.45;11.75;;;;;;;;;;10105634;28;20122;-66
2023/09/16 17:55:57;;;;;;;14.23;11.50;;;;;;;;;;10064090;28;20045;-67
2023/09/16 18:00:49;;;;;;;14.63;13.13;;;;;;;;;;10085385;28;20417;-67
2023/09/16 18:05:41;;;;;;;13.77;11.25;;;;;;;;;;10085796;28;20060;-66
2023/09/16 18:10:38;;;;;;;14.13;12.75;;;;;;;;;;10101119;28;20057;-66
2023/09/16 18:15:30;;;;;;;12.82;11.63;;;;;;;;;;10101151;28;20039;-66
2023/09/16 18:20:22;;;;;;;14.65;11.68;;;;;;;;;;10079435;28;20049;-66
2023/09/16 18:25:14;;;;;;;10.68;9.57;;;;;;;;;;10070595;28;20368;-67
2023/09/16 18:30:09;;;;;;;14.25;10.95;;;;;;;;;;10067091;28;20137;-66
2023/09/16 18:35:01;;;;;;;12.95;11.65;;;;;;;;;;10066931;28;20058;-67
2023/09/16 18:39:53;;;;;;;11.82;10.38;;;;;;;;;;10069907;28;20041;-67
2023/09/16 18:44:44;;;;;;;11.63;9.35;;;;;;;;;;10078827;28;20058;-67
2023/09/16 18:49:38;;;;;;;15.55;9.73;;;;;;;;;;10067410;28;20077;-67
2023/09/16 18:54:30;;;;;;;10.60;9.57;;;;;;;;;;10051667;28;20421;-67
2023/09/16 18:59:22;;;;;;;12.07;10.65;;;;;;;;;;10069818;28;20041;-67
2023/09/16 19:04:15;;;;;;;16.55;12.38;;;;;;;;;;10067262;28;20509;-67
2023/09/16 19:09:08;;;;;;;21.15;14.82;;;;;;;;;;10044617;28;20052;-67
2023/09/16 19:13:59;;;;;;;20.17;14.18;;;;;;;;;;10061921;28;20052;-67
2023/09/16 19:18:51;;;;;;;16.80;12.48;;;;;;;;;;10062331;28;20324;-67
2023/09/16 19:23:45;;;;;;;14.88;13.13;;;;;;;;;;10113555;28;20127;-67
2023/09/16 19:28:37;;;;;;;19.27;14.55;;;;;;;;;;10089233;28;20172;-74
2023/09/16 19:33:30;;;;;;;23.52;16.08;;;;;;;;;;10082709;28;20048;-74
2023/09/16 19:38:23;;;;;;;21.52;15.95;;;;;;;;;;10071751;28;20057;-74
2023/09/16 19:43:15;;;;;;;20.13;14.82;;;;;;;;;;10073704;28;20055;-73
2023/09/16 19:48:07;;;;;;;20.52;16.90;;;;;;;;;;10075124;28;20072;-73
2023/09/16 19:53:00;;;;;;;19.08;17.08;;;;;;;;;;10074742;28;20051;-73
2023/09/16 19:57:51;;;;;;;21.48;18.50;;;;;;;;;;10084997;28;20391;-73
2023/09/16 20:02:45;;;;;;;26.13;20.42;;;;;;;;;;10073956;28;20432;-73
2023/09/16 20:07:37;;;;;;;25.27;21.42;;;;;;;;;;10069689;28;20084;-72
2023/09/16 20:12:29;;;;;;;23.52;20.00;;;;;;;;;;10069775;28;20045;-73
2023/09/16 20:17:21;;;;;;;21.45;18.58;;;;;;;;;;10077185;28;20045;-73
2023/09/16 20:22:13;;;;;;;22.30;19.92;;;;;;;;;;10049840;28;20037;-72
2023/09/16 20:27:05;;;;;;;22.65;20.27;;;;;;;;;;10087322;28;20565;-71
2023/09/16 20:31:57;;;;;;;27.70;21.65;;;;;;;;;;10053520;28;20091;-71
2023/09/16 20:36:50;;;;;;;29.80;24.00;;;;;;;;;;10068457;28;20373;-72
2023/09/16 20:41:42;;;;;;;25.55;22.40;;;;;;;;;;10069235;28;20076;-73
2023/09/16 20:46:34;;;;;;;29.50;24.15;;;;;;;;;;10074495;28;20045;-73
2023/09/16 20:51:26;;;;;;;31.88;23.40;;;;;;;;;;10066416;28;20471;-73
2023/09/16 20:56:18;;;;;;;28.13;23.45;;;;;;;;;;10067904;28;20076;-73
2023/09/16 21:01:10;;;;;;;32.33;25.48;;;;;;;;;;10066850;28;20044;-73
2023/09/16 21:06:02;;;;;;;29.15;24.75;;;;;;;;;;10069964;28;20053;-73
2023/09/16 21:10:54;;;;;;;30.90;27.20;;;;;;;;;;10081980;28;20041;-73
2023/09/16 21:15:48;;;;;;;27.00;24.05;;;;;;;;;;10067845;28;20033;-74
2023/09/16 21:20:40;;;;;;;32.78;27.70;;;;;;;;;;10050577;28;20379;-74
2023/09/16 21:25:31;;;;;;;29.67;26.23;;;;;;;;;;10070846;28;20053;-74
2023/09/16 21:30:24;;;;;;;28.90;25.42;;;;;;;;;;10045695;28;20442;-73
2023/09/16 21:35:16;;;;;;;57.35;27.42;;;;;;;;;;10044731;28;20049;-72
2023/09/16 21:40:09;;;;;;;33.38;26.67;;;;;;;;;;10060553;28;20653;-73
2023/09/16 21:45:01;;;;;;;36.28;27.40;;;;;;;;;;10062842;28;20119;-73
2023/09/16 21:49:53;;;;;;;34.67;26.38;;;;;;;;;;10064474;28;20618;-72
2023/09/16 21:54:45;;;;;;;30.67;26.15;;;;;;;;;;10065222;28;20045;-73
2023/09/16 21:59:37;;;;;;;32.58;26.23;;;;;;;;;;10067070;28;20053;-72
2023/09/16 22:04:29;;;;;;;31.88;27.50;;;;;;;;;;10080361;28;20479;-73
2023/09/16 22:09:21;;;;;;;33.17;26.45;;;;;;;;;;10073125;28;20061;-74
2023/09/16 22:14:13;;;;;;;29.40;25.83;;;;;;;;;;10093385;28;20378;-73
2023/09/16 22:19:05;;;;;;;32.88;25.48;;;;;;;;;;10102174;28;20052;-72
2023/09/16 22:23:57;;;;;;;27.77;24.83;;;;;;;;;;10061711;28;20068;-74
2023/09/16 22:28:49;;;;;;;22.77;20.42;;;;;;;;;;10063370;28;20046;-73
2023/09/16 22:33:41;;;;;;;26.02;22.95;;;;;;;;;;10062356;28;20413;-73
2023/09/16 22:38:33;;;;;;;20.75;18.58;;;;;;;;;;10064350;28;20042;-73
2023/09/16 22:43:25;;;;;;;22.90;20.23;;;;;;;;;;10066133;28;20048;-74
2023/09/16 22:48:17;;;;;;;22.80;19.25;;;;;;;;;;10065335;28;20162;-72
2023/09/16 22:53:09;;;;;;;22.55;20.20;;;;;;;;;;10065893;28;20100;-73
2023/09/16 22:58:02;;;;;;;23.27;19.88;;;;;;;;;;10071524;28;20045;-74
2023/09/16 23:02:54;;;;;;;22.60;20.20;;;;;;;;;;10077980;28;20464;-73
2023/09/16 23:07:46;;;;;;;24.50;19.85;;;;;;;;;;10073328;28;20041;-73
2023/09/16 23:12:38;;;;;;;23.80;20.55;;;;;;;;;;10072895;28;20041;-73
2023/09/16 23:17:30;;;;;;;25.40;20.95;;;;;;;;;;10072887;28;20172;-73
2023/09/16 23:22:22;;;;;;;24.20;20.73;;;;;;;;;;10071873;28;20041;-73
2023/09/16 23:27:14;;;;;;;28.05;22.10;;;;;;;;;;10072196;28;20051;-73
2023/09/16 23:32:06;;;;;;;24.30;21.75;;;;;;;;;;10081190;28;20064;-72
2023/09/16 23:36:59;;;;;;;24.92;21.33;;;;;;;;;;10071653;28;20574;-73
2023/09/16 23:41:50;;;;;;;26.58;22.15;;;;;;;;;;10071620;28;20095;-73
2023/09/16 23:46:42;;;;;;;38.05;26.08;;;;;;;;;;10071642;28;20053;-73
2023/09/16 23:51:34;;;;;;;42.45;23.80;;;;;;;;;;10070940;28;20049;-74
2023/09/16 23:56:26;;;;;;;26.98;22.55;;;;;;;;;;10071945;28;20037;-73
